Time;durP1;ratioP1;P1;durP2;ratioP2;P2;SDS_P1;SDS_P2;PMS_P1;PMS_P2;Temp;Humidity;BMP_temperature;BMP_pressure;BME280_temperature;BME280_humidity;BME280_pressure;Samples;Min_cycle;Max_cycle;Signal;HPM_P1;HPM_P2
2022/12/10 00:01:42;;;;;;;26.70;11.57;;;;;;;-2.51;86.18;100790.50;5026464;28;20491;-77
2022/12/10 00:04:07;;;;;;;32.20;12.80;;;;;;;-2.56;86.04;100788.66;5029793;28;20027;-77
2022/12/10 00:06:35;;;;;;;28.90;12.70;;;;;;;-2.60;86.24;100792.78;5023930;28;20017;-77
2022/12/10 00:09:01;;;;;;;30.77;12.17;;;;;;;-2.58;86.53;100785.19;5020955;28;20502;-77
2022/12/10 00:11:27;;;;;;;30.70;11.57;;;;;;;-2.59;86.42;100784.31;5019860;28;20120;-77
2022/12/10 00:13:53;;;;;;;29.17;12.33;;;;;;;-2.62;86.49;100785.09;5020995;28;20144;-77
2022/12/10 00:16:21;;;;;;;27.00;11.73;;;;;;;-2.63;86.25;100793.56;5022245;28;20159;-77
2022/12/10 00:18:47;;;;;;;29.17;12.17;;;;;;;-2.64;86.22;100794.38;5021507;28;20361;-77
2022/12/10 00:21:16;;;;;;;28.10;11.93;;;;;;;-2.65;86.62;100799.44;5025520;28;20029;-77
2022/12/10 00:23:42;;;;;;;28.20;12.60;;;;;;;-2.67;85.66;100796.84;5031883;28;20523;-77
2022/12/10 00:26:12;;;;;;;30.50;12.53;;;;;;;-2.71;86.03;100800.13;5030832;28;20033;-77
2022/12/10 00:28:38;;;;;;;29.57;11.53;;;;;;;-2.75;86.37;100793.25;5024640;28;20077;-77
2022/12/10 00:31:10;;;;;;;30.33;12.17;;;;;;;-2.76;86.00;100800.00;5013720;28;20032;-77
2022/12/10 00:33:36;;;;;;;32.10;13.00;;;;;;;-2.76;86.26;100794.91;5013387;28;20318;-77
2022/12/10 00:36:10;;;;;;;31.60;12.47;;;;;;;-2.75;87.00;100790.69;5013434;28;20170;-77
2022/12/10 00:38:36;;;;;;;29.97;12.03;;;;;;;-2.75;86.06;100789.00;5024808;28;20484;-77
2022/12/10 00:41:02;;;;;;;30.13;12.37;;;;;;;-2.75;86.39;100793.25;5020381;28;20117;-77
2022/12/10 00:43:28;;;;;;;33.03;13.10;;;;;;;-2.77;86.97;100788.09;5025557;28;20096;-77
2022/12/10 00:45:53;;;;;;;28.20;12.23;;;;;;;-2.74;86.79;100789.88;5024717;28;20104;-77
2022/12/10 00:48:19;;;;;;;27.33;11.50;;;;;;;-2.68;86.63;100795.13;5024680;28;20029;-78
2022/12/10 00:50:59;;;;;;;31.70;12.33;;;;;;;-2.70;86.55;100791.66;5029871;28;20075;-77
2022/12/10 00:53:26;;;;;;;29.17;11.70;;;;;;;-2.73;85.98;100793.25;5028840;28;20037;-77
2022/12/10 00:55:52;;;;;;;31.20;13.17;;;;;;;-2.77;86.44;100789.78;5031525;28;20075;-77
2022/12/10 00:58:18;;;;;;;30.77;12.43;;;;;;;-2.81;86.86;100787.97;5030561;28;20065;-77
2022/12/10 01:00:43;;;;;;;34.83;13.27;;;;;;;-2.83;86.52;100784.50;5032069;28;20024;-77
2022/12/10 01:03:08;;;;;;;34.17;14.27;;;;;;;-2.90;86.87;100775.84;5029737;28;20491;-77
2022/12/10 01:05:34;;;;;;;28.60;11.70;;;;;;;-2.90;86.79;100769.03;5023963;28;20032;-77
2022/12/10 01:07:59;;;;;;;29.17;12.70;;;;;;;-2.93;86.99;100771.53;5032610;28;20033;-78
2022/12/10 01:10:24;;;;;;;29.40;11.83;;;;;;;-2.94;86.85;100772.34;5031911;28;20029;-77
2022/12/10 01:12:49;;;;;;;29.23;11.97;;;;;;;-2.96;86.49;100775.66;5030413;28;20030;-77
2022/12/10 01:15:15;;;;;;;27.77;10.70;;;;;;;-2.94;86.58;100779.97;5030494;28;20022;-77
2022/12/10 01:17:40;;;;;;;30.13;12.13;;;;;;;-2.95;86.88;100783.34;5031712;28;20440;-77
2022/12/10 01:20:06;;;;;;;30.37;12.57;;;;;;;-2.96;86.68;100796.91;5030257;28;20427;-77
2022/12/10 01:22:31;;;;;;;27.73;11.53;;;;;;;-2.95;86.14;100795.19;5027754;28;20481;-77
2022/12/10 01:24:57;;;;;;;29.70;11.87;;;;;;;-2.97;86.40;100802.81;5021427;28;20094;-77
2022/12/10 01:27:22;;;;;;;28.93;12.30;;;;;;;-2.97;86.66;100807.88;5033399;28;20037;-77
2022/12/10 01:29:47;;;;;;;33.53;13.80;;;;;;;-3.01;86.30;100800.13;5024589;28;20046;-77
2022/12/10 01:32:12;;;;;;;32.83;12.97;;;;;;;-3.03;86.29;100800.06;5033637;28;20048;-77
2022/12/10 01:34:38;;;;;;;31.70;12.37;;;;;;;-3.03;86.51;100797.53;5021121;28;20026;-77
2022/12/10 01:37:03;;;;;;;27.63;11.47;;;;;;;-3.03;86.54;100801.75;5028237;28;20484;-77
2022/12/10 01:39:28;;;;;;;28.77;12.50;;;;;;;-3.05;85.88;100809.34;5022317;28;20389;-77
2022/12/10 01:41:56;;;;;;;27.00;11.73;;;;;;;-3.06;86.67;100811.03;5032651;28;20148;-77
2022/12/10 01:44:21;;;;;;;28.90;10.73;;;;;;;-3.05;86.20;100814.41;5030337;28;20107;-77
2022/12/10 01:46:49;;;;;;;28.77;12.20;;;;;;;-3.06;86.52;100813.56;5029908;28;20543;-77
2022/12/10 01:49:18;;;;;;;28.47;11.80;;;;;;;-3.03;86.79;100806.84;5027099;28;20036;-78
2022/12/10 01:51:45;;;;;;;31.43;12.47;;;;;;;-3.02;87.44;100814.53;5033372;28;20029;-77
2022/12/10 01:54:19;;;;;;;31.00;12.80;;;;;;;-2.96;87.33;100814.72;5029081;28;20036;-77
2022/12/10 01:56:48;;;;;;;32.57;12.27;;;;;;;-2.91;88.02;100813.16;5024018;28;20041;-77
2022/12/10 01:59:14;;;;;;;31.97;13.27;;;;;;;-2.88;87.89;100807.28;5030253;28;20111;-77
2022/12/10 02:01:57;;;;;;;29.37;12.50;;;;;;;-2.83;88.10;100802.31;5021828;28;20469;-77
2022/12/10 02:04:31;;;;;;;34.30;12.93;;;;;;;-2.81;88.15;100805.78;5033004;28;20491;-77
2022/12/10 02:07:04;;;;;;;36.63;13.60;;;;;;;-2.79;87.64;100801.59;5022962;28;20104;-77
2022/12/10 02:09:40;;;;;;;33.23;13.13;;;;;;;-2.77;88.18;100805.91;5018450;28;20113;-77
2022/12/10 02:12:34;;;;;;;34.53;13.40;;;;;;;-2.71;88.63;100802.66;5031225;28;20021;-77
2022/12/10 02:15:06;;;;;;;35.03;13.60;;;;;;;-2.69;88.32;100806.13;5031557;28;20132;-77
2022/12/10 02:17:48;;;;;;;32.77;12.93;;;;;;;-2.64;88.76;100802.03;5019178;28;20041;-77
2022/12/10 02:20:22;;;;;;;32.63;12.75;;;;;;;-2.62;88.86;100810.56;5022304;28;20025;-77
2022/12/10 02:22:51;;;;;;;31.97;13.53;;;;;;;-2.58;89.03;100805.56;5026862;28;20041;-77
2022/12/10 02:25:22;;;;;;;32.90;12.90;;;;;;;-2.54;88.29;100807.34;5018890;28;20022;-77
2022/12/10 02:28:11;;;;;;;30.97;12.87;;;;;;;-2.51;87.67;100807.44;5024967;28;20420;-77
2022/12/10 02:30:39;;;;;;;33.47;14.17;;;;;;;-2.54;88.23;100809.91;5028500;28;20052;-77
2022/12/10 02:33:07;;;;;;;35.17;15.50;;;;;;;-2.56;87.91;100809.03;5023500;28;20038;-77
2022/12/10 02:35:38;;;;;;;34.20;14.30;;;;;;;-2.54;87.97;100812.44;5016606;28;20116;-78
2022/12/10 02:38:16;;;;;;;35.63;15.38;;;;;;;-2.53;87.83;100809.09;5025129;28;20046;-77
2022/12/10 02:40:46;;;;;;;32.70;14.70;;;;;;;-2.57;88.64;100808.16;5031682;28;20031;-77
2022/12/10 02:43:14;;;;;;;40.50;15.40;;;;;;;-2.56;88.39;100809.03;5035013;28;20096;-77
2022/12/10 02:45:42;;;;;;;36.47;14.13;;;;;;;-2.53;88.79;100801.44;5034925;28;20388;-77
2022/12/10 02:48:08;;;;;;;39.07;15.43;;;;;;;-2.50;89.15;100804.06;5033087;28;20037;-77
2022/12/10 02:50:34;;;;;;;36.73;15.37;;;;;;;-2.49;89.55;100805.81;5034991;28;20029;-77
2022/12/10 02:52:59;;;;;;;34.63;14.27;;;;;;;-2.46;89.49;100806.75;5034881;28;20025;-77
2022/12/10 02:55:24;;;;;;;35.50;14.43;;;;;;;-2.44;89.00;100804.25;5035055;28;20060;-77
2022/12/10 02:58:18;;;;;;;37.07;14.00;;;;;;;-2.44;89.25;100804.25;5016770;28;20030;-77
2022/12/10 03:00:53;;;;;;;35.47;14.07;;;;;;;-2.44;88.65;100806.81;5023346;28;20026;-77
2022/12/10 03:03:41;;;;;;;35.37;13.87;;;;;;;-2.45;89.37;100813.56;5034499;28;20114;-77
2022/12/10 03:06:12;;;;;;;28.77;13.30;;;;;;;-2.45;89.08;100810.16;5034362;28;20036;-77
2022/12/10 03:08:45;;;;;;;33.58;13.00;;;;;;;-2.46;89.02;100816.94;5034042;28;20216;-77
2022/12/10 03:11:13;;;;;;;37.53;14.90;;;;;;;-2.47;88.48;100809.25;5032937;28;20045;-77
2022/12/10 03:13:50;;;;;;;34.73;14.17;;;;;;;-2.45;88.93;100812.72;5027927;28;20034;-77
2022/12/10 03:16:17;;;;;;;32.87;13.97;;;;;;;-2.44;88.97;100809.34;5028073;28;20033;-77
2022/12/10 03:18:45;;;;;;;33.67;13.17;;;;;;;-2.46;88.84;100804.19;5019110;28;20032;-77
2022/12/10 03:21:11;;;;;;;32.73;13.97;;;;;;;-2.45;88.97;100813.56;5008466;28;20018;-77
2022/12/10 03:23:40;;;;;;;35.40;13.87;;;;;;;-2.44;89.16;100814.44;5021394;28;20097;-77
2022/12/10 03:26:08;;;;;;;38.37;13.70;;;;;;;-2.42;89.20;100815.34;5031419;28;20104;-77
2022/12/10 03:28:38;;;;;;;34.93;13.13;;;;;;;-2.38;89.31;100819.69;5031257;28;20085;-77
2022/12/10 03:31:05;;;;;;;36.23;14.53;;;;;;;-2.37;88.51;100816.31;5033562;28;20026;-77
2022/12/10 03:33:32;;;;;;;32.90;13.20;;;;;;;-2.36;88.79;100812.09;5015836;28;20021;-77
2022/12/10 03:35:58;;;;;;;38.17;15.10;;;;;;;-2.34;89.15;100815.56;5022795;28;20072;-77
2022/12/10 03:38:23;;;;;;;39.07;15.73;;;;;;;-2.33;88.64;100805.41;5028880;28;20032;-77
2022/12/10 03:40:49;;;;;;;39.33;14.67;;;;;;;-2.31;88.71;100810.56;5030353;28;20029;-77
2022/12/10 03:43:14;;;;;;;37.13;14.80;;;;;;;-2.32;88.62;100822.41;5032843;28;20028;-77
2022/12/10 03:45:40;;;;;;;37.47;14.90;;;;;;;-2.33;88.95;100820.69;5033376;28;20406;-77
2022/12/10 03:48:06;;;;;;;37.90;15.07;;;;;;;-2.32;89.30;100822.41;5033647;28;20045;-77
2022/12/10 03:50:31;;;;;;;38.23;15.60;;;;;;;-2.30;89.34;100818.22;5028794;28;20497;-77
2022/12/10 03:52:56;;;;;;;36.87;15.00;;;;;;;-2.26;88.70;100815.75;5014040;28;20033;-77
2022/12/10 03:55:21;;;;;;;35.67;14.20;;;;;;;-2.26;88.71;100826.81;5024143;28;20063;-77
2022/12/10 03:57:48;;;;;;;42.17;15.97;;;;;;;-2.27;89.39;100829.31;5025698;28;20133;-77
2022/12/10 04:00:13;;;;;;;38.70;14.90;;;;;;;-2.31;89.05;100825.84;5013931;28;20022;-77
2022/12/10 04:02:39;;;;;;;35.90;13.90;;;;;;;-2.34;88.78;100829.16;5013898;28;20385;-77
2022/12/10 04:05:06;;;;;;;37.20;15.23;;;;;;;-2.34;88.86;100829.16;5014058;28;20069;-77
2022/12/10 04:07:31;;;;;;;42.67;15.17;;;;;;;-2.34;89.62;100828.31;5029866;28;20032;-77
2022/12/10 04:09:56;;;;;;;47.57;17.27;;;;;;;-2.33;89.13;100832.56;5013709;28;20034;-77
2022/12/10 04:12:22;;;;;;;41.37;15.63;;;;;;;-2.34;89.60;100834.25;5018760;28;20029;-77
2022/12/10 04:17:33;;;;;;;39.93;15.13;;;;;;;-2.30;89.39;100837.72;5029406;28;20098;-77
2022/12/10 04:19:58;;;;;;;42.17;15.60;;;;;;;-2.28;89.98;100833.53;5027888;28;20080;-77
2022/12/10 04:27:54;;;;;;;42.17;14.97;;;;;;;-2.23;89.61;100831.13;5030614;28;20091;-77
2022/12/10 04:30:20;;;;;;;39.37;14.47;;;;;;;-2.23;90.23;100833.69;5016786;28;20049;-77
2022/12/10 04:32:45;;;;;;;39.97;14.93;;;;;;;-2.23;89.95;100841.34;5013218;28;20104;-77
2022/12/10 04:35:10;;;;;;;41.00;13.63;;;;;;;-2.21;90.04;100837.09;5013654;28;20454;-77
2022/12/10 04:37:35;;;;;;;39.63;14.97;;;;;;;-2.18;89.64;100842.28;5028482;28;20096;-77
2022/12/10 04:40:02;;;;;;;43.97;15.83;;;;;;;-2.17;90.04;100838.94;5014411;28;20036;-77
2022/12/10 04:42:27;;;;;;;41.90;15.50;;;;;;;-2.15;89.70;100835.63;5031101;28;20033;-77
2022/12/10 04:44:53;;;;;;;38.77;14.50;;;;;;;-2.14;90.22;100833.91;5023886;28;20032;-77
2022/12/10 04:47:18;;;;;;;47.63;16.90;;;;;;;-2.14;90.18;100836.47;5022059;28;20037;-77
2022/12/10 04:49:43;;;;;;;46.23;17.17;;;;;;;-2.14;90.00;100839.00;5022879;28;20130;-77
2022/12/10 04:52:11;;;;;;;43.70;15.07;;;;;;;-2.12;90.45;100837.38;5027179;28;20186;-77
2022/12/10 04:54:37;;;;;;;42.53;15.93;;;;;;;-2.10;89.99;100838.28;5013065;28;20153;-77
2022/12/10 04:57:02;;;;;;;40.20;15.20;;;;;;;-2.09;89.66;100845.09;5028408;28;20075;-77
2022/12/10 04:59:27;;;;;;;39.13;14.93;;;;;;;-2.07;90.29;100838.38;5024174;28;20045;-77
2022/12/10 05:01:52;;;;;;;41.30;15.20;;;;;;;-2.07;90.75;100838.38;5023184;28;20041;-77
2022/12/10 05:04:19;;;;;;;42.63;15.23;;;;;;;-2.05;90.06;100844.34;5029142;28;20516;-77
2022/12/10 05:06:45;;;;;;;43.57;16.73;;;;;;;-2.07;90.41;100846.00;5031126;28;20030;-77
2022/12/10 05:09:11;;;;;;;41.17;14.73;;;;;;;-2.08;90.21;100849.38;5027432;28;20064;-77
2022/12/10 05:11:37;;;;;;;44.47;15.27;;;;;;;-2.08;90.37;100839.19;5014590;28;20030;-77
2022/12/10 05:14:02;;;;;;;43.27;16.00;;;;;;;-2.07;90.16;100845.13;5032580;28;20480;-77
2022/12/10 05:16:30;;;;;;;41.33;14.07;;;;;;;-2.06;90.68;100839.22;5031811;28;20469;-77
2022/12/10 05:18:56;;;;;;;46.67;15.43;;;;;;;-2.05;90.62;100836.69;5027533;28;20060;-77
2022/12/10 05:21:23;;;;;;;42.40;14.90;;;;;;;-2.02;89.92;100841.88;5017022;28;20096;-77
2022/12/10 05:23:51;;;;;;;40.90;14.70;;;;;;;-2.02;89.62;100834.22;5026738;28;20025;-77
2022/12/10 05:26:22;;;;;;;39.97;14.90;;;;;;;-2.03;89.99;100844.41;5025052;28;20029;-77
2022/12/10 05:28:55;;;;;;;42.03;14.77;;;;;;;-2.03;90.61;100841.84;5027113;28;20052;-77
2022/12/10 05:31:24;;;;;;;51.13;16.73;;;;;;;-2.02;90.37;100843.56;5020101;28;20026;-77
2022/12/10 05:33:50;;;;;;;41.33;14.70;;;;;;;-2.01;90.47;100846.16;5017747;28;20029;-77
2022/12/10 05:36:18;;;;;;;39.23;14.47;;;;;;;-2.02;90.80;100849.50;5029153;28;20457;-77
2022/12/10 05:38:44;;;;;;;46.03;15.47;;;;;;;-2.02;90.27;100844.41;5015156;28;20400;-77
2022/12/10 05:41:15;;;;;;;43.60;15.33;;;;;;;-2.04;90.19;100846.06;5027428;28;20034;-77
2022/12/10 05:43:42;;;;;;;44.38;15.65;;;;;;;-2.04;91.00;100852.88;5032064;28;20087;-77
2022/12/10 05:46:11;;;;;;;44.43;14.83;;;;;;;-2.05;90.52;100851.97;5025374;28;20084;-77
2022/12/10 05:48:37;;;;;;;44.47;16.53;;;;;;;-2.08;90.77;100851.94;5019185;28;20022;-77
2022/12/10 05:51:15;;;;;;;43.97;15.43;;;;;;;-2.08;90.18;100849.38;5022233;28;20448;-77
2022/12/10 05:53:41;;;;;;;42.63;15.03;;;;;;;-2.07;90.16;100845.13;5028145;28;20387;-77
2022/12/10 05:56:16;;;;;;;41.87;14.80;;;;;;;-2.06;90.70;100845.19;5022974;28;20026;-77
2022/12/10 05:58:43;;;;;;;40.03;14.30;;;;;;;-2.04;90.29;100851.16;5025131;28;20026;-77
2022/12/10 06:01:12;;;;;;;40.77;14.37;;;;;;;-2.02;90.54;100859.72;5016520;28;20208;-77
2022/12/10 06:03:37;;;;;;;42.23;14.00;;;;;;;-2.01;90.25;100858.91;5017603;28;20442;-77
2022/12/10 06:06:03;;;;;;;47.13;15.57;;;;;;;-2.00;90.26;100863.16;5018614;28;20021;-77
2022/12/10 06:08:29;;;;;;;38.30;13.17;;;;;;;-1.99;90.25;100854.69;5034783;28;20079;-77
2022/12/10 06:10:54;;;;;;;40.93;14.50;;;;;;;-1.96;90.23;100853.06;5027978;28;20025;-77
2022/12/10 06:13:20;;;;;;;42.10;14.37;;;;;;;-1.94;89.99;100856.50;5024879;28;20476;-77
2022/12/10 06:15:45;;;;;;;43.30;14.23;;;;;;;-1.95;90.83;100849.69;5021592;28;20410;-77
2022/12/10 06:18:11;;;;;;;44.87;15.30;;;;;;;-1.96;89.88;100847.97;5030887;28;20071;-77
2022/12/10 06:20:39;;;;;;;41.67;15.00;;;;;;;-1.96;90.36;100850.50;5034232;28;20029;-77
2022/12/10 06:23:05;;;;;;;47.43;15.57;;;;;;;-1.98;90.47;100848.78;5024570;28;20036;-77
2022/12/10 06:25:30;;;;;;;45.80;15.80;;;;;;;-1.96;90.28;100850.50;5035623;28;20021;-77
2022/12/10 06:27:55;;;;;;;41.30;15.23;;;;;;;-1.98;90.31;100853.88;5026917;28;20031;-77
2022/12/10 06:30:21;;;;;;;40.73;14.43;;;;;;;-1.96;90.96;100858.16;5020186;28;20064;-77
2022/12/10 06:32:46;;;;;;;42.37;13.87;;;;;;;-1.95;91.07;100854.78;5035289;28;20028;-77
2022/12/10 06:35:11;;;;;;;40.47;14.43;;;;;;;-1.97;90.53;100859.84;5035367;28;20036;-77
2022/12/10 06:37:37;;;;;;;42.67;14.60;;;;;;;-1.98;90.00;100861.53;5034428;28;20040;-77
2022/12/10 06:40:04;;;;;;;43.30;14.63;;;;;;;-1.98;90.33;100860.69;5038523;28;20044;-77
2022/12/10 06:42:29;;;;;;;46.87;15.20;;;;;;;-1.95;90.49;100870.09;5035111;28;20381;-77
2022/12/10 06:44:54;;;;;;;47.00;14.90;;;;;;;-1.95;90.70;100867.53;5034420;28;20013;-77
2022/12/10 06:47:20;;;;;;;45.50;16.00;;;;;;;-1.94;90.51;100871.81;5007583;28;20030;-77
2022/12/10 06:49:45;;;;;;;46.87;16.10;;;;;;;-1.95;90.40;100870.09;5033434;28;20112;-77
2022/12/10 06:52:10;;;;;;;53.47;16.37;;;;;;;-1.90;91.10;100881.28;5034837;28;20099;-77
2022/12/10 06:54:36;;;;;;;47.00;15.73;;;;;;;-1.88;90.75;100877.09;5029707;28;20247;-77
2022/12/10 06:57:01;;;;;;;54.40;15.77;;;;;;;-1.85;89.91;100882.25;5030846;28;20373;-77
2022/12/10 06:59:26;;;;;;;49.23;15.93;;;;;;;-1.87;90.72;100887.31;5039231;28;20057;-77
2022/12/10 07:01:51;;;;;;;49.20;16.67;;;;;;;-1.87;90.93;100883.88;5037240;28;20033;-77
2022/12/10 07:04:17;;;;;;;49.30;16.13;;;;;;;-1.86;90.27;100883.06;5033111;28;20477;-77
2022/12/10 07:06:42;;;;;;;52.57;16.87;;;;;;;-1.87;90.45;100876.22;5036688;28;20027;-77
2022/12/10 07:09:09;;;;;;;45.77;15.30;;;;;;;-1.87;89.95;100879.66;5036656;28;20036;-77
2022/12/10 07:11:35;;;;;;;45.27;15.03;;;;;;;-1.89;90.54;100886.41;5034782;28;20025;-77
2022/12/10 07:14:01;;;;;;;52.77;16.33;;;;;;;-1.93;90.26;100888.84;5034533;28;20049;-77
2022/12/10 07:16:30;;;;;;;50.67;16.30;;;;;;;-1.96;90.03;100891.31;5031884;28;20109;-78
2022/12/10 07:18:58;;;;;;;53.73;16.83;;;;;;;-1.97;90.08;100898.09;5037320;28;20025;-77
2022/12/10 07:21:26;;;;;;;54.90;16.67;;;;;;;-1.99;89.86;100900.59;5033684;28;20029;-77
2022/12/10 07:23:54;;;;;;;51.90;16.80;;;;;;;-2.02;90.63;100895.41;5030242;28;20028;-77
2022/12/10 07:26:20;;;;;;;52.97;17.47;;;;;;;-2.02;91.09;100897.97;5030057;28;20508;-77
2022/12/10 07:28:46;;;;;;;51.07;16.17;;;;;;;-1.98;91.15;100904.03;5025777;28;20064;-77
2022/12/10 07:31:11;;;;;;;49.73;15.13;;;;;;;-1.96;90.52;100909.16;5024527;28;20465;-77
2022/12/10 07:33:37;;;;;;;50.73;15.77;;;;;;;-1.95;91.04;100903.22;5027550;28;20025;-77
2022/12/10 07:36:07;;;;;;;49.50;15.23;;;;;;;-1.95;91.33;100909.19;5026150;28;20428;-77
2022/12/10 07:38:32;;;;;;;47.07;15.63;;;;;;;-1.96;91.20;100906.59;5025775;28;20033;-77
2022/12/10 07:40:57;;;;;;;46.50;14.83;;;;;;;-1.97;90.19;100908.31;5027306;28;20089;-77
2022/12/10 07:43:23;;;;;;;54.03;16.90;;;;;;;-1.99;90.75;100907.41;5026861;28;20029;-78
2022/12/10 07:45:48;;;;;;;49.60;15.43;;;;;;;-2.02;90.71;100913.25;5027585;28;20623;-76
2022/12/10 07:48:14;;;;;;;54.43;16.53;;;;;;;-2.05;90.73;100915.72;5026267;28;20025;-77
2022/12/10 07:50:39;;;;;;;51.27;15.80;;;;;;;-2.04;91.10;100921.69;5027621;28;20024;-77
2022/12/10 07:53:04;;;;;;;49.27;14.97;;;;;;;-2.03;91.28;100913.22;5027660;28;20060;-77
2022/12/10 07:55:30;;;;;;;50.27;15.03;;;;;;;-2.02;90.71;100928.53;5026456;28;20086;-77
2022/12/10 07:57:55;;;;;;;48.10;14.60;;;;;;;-2.00;91.43;100929.47;5027064;28;20041;-77
2022/12/10 08:00:20;;;;;;;43.13;13.93;;;;;;;-2.00;90.81;100934.56;5027485;28;20041;-76
2022/12/10 08:02:45;;;;;;;51.97;15.63;;;;;;;-1.99;91.32;100933.72;5024110;28;20391;-76
2022/12/10 08:05:11;;;;;;;49.03;14.57;;;;;;;-1.99;91.34;100931.19;5025504;28;20175;-76
2022/12/10 08:07:36;;;;;;;49.17;15.63;;;;;;;-1.98;91.21;100932.91;5005795;28;20025;-76
2022/12/10 08:10:02;;;;;;;49.27;15.63;;;;;;;-2.00;90.61;100936.25;5027247;28;20420;-76
2022/12/10 08:12:27;;;;;;;52.70;16.23;;;;;;;-2.01;90.65;100937.94;5025578;28;20032;-76
2022/12/10 08:14:52;;;;;;;43.50;14.30;;;;;;;-2.03;90.45;100933.63;5026998;28;20084;-76
2022/12/10 08:17:18;;;;;;;51.43;16.27;;;;;;;-2.01;91.39;100942.19;5026401;28;20484;-76
2022/12/10 08:19:43;;;;;;;53.67;16.57;;;;;;;-2.01;90.86;100948.13;5027255;28;20036;-76
2022/12/10 08:22:08;;;;;;;50.57;16.17;;;;;;;-1.99;91.08;100956.69;5024010;28;20021;-77
2022/12/10 08:24:34;;;;;;;55.13;15.93;;;;;;;-1.98;91.36;100957.56;5024555;28;20017;-77
2022/12/10 08:26:59;;;;;;;54.73;15.97;;;;;;;-1.98;91.54;100955.84;5024983;28;20029;-76
2022/12/10 08:29:24;;;;;;;50.17;15.33;;;;;;;-1.96;91.31;100960.13;5025377;28;20942;-76
2022/12/10 08:31:49;;;;;;;56.93;16.97;;;;;;;-1.93;91.16;100955.13;5025430;28;20033;-76
2022/12/10 08:34:17;;;;;;;52.27;16.63;;;;;;;-1.90;91.81;100965.41;5026597;28;20061;-77
2022/12/10 08:36:43;;;;;;;52.53;15.77;;;;;;;-1.86;91.26;100957.00;5027135;28;20017;-77
2022/12/10 08:39:10;;;;;;;50.23;15.60;;;;;;;-1.85;91.35;100958.72;5026865;28;20535;-77
2022/12/10 08:41:35;;;;;;;51.57;15.27;;;;;;;-1.85;91.02;100968.94;5025508;28;20057;-77
2022/12/10 08:44:01;;;;;;;46.30;14.27;;;;;;;-1.86;91.22;100974.84;5025533;28;20123;-77
2022/12/10 08:46:26;;;;;;;47.00;14.87;;;;;;;-1.85;90.93;100972.38;5026080;28;20044;-77
2022/12/10 08:48:51;;;;;;;45.63;15.03;;;;;;;-1.84;90.76;100969.00;5026763;28;20075;-76
2022/12/10 08:51:18;;;;;;;48.83;14.47;;;;;;;-1.82;91.19;100966.47;5026636;28;20030;-77
2022/12/10 08:53:44;;;;;;;42.97;13.37;;;;;;;-1.80;91.13;100966.53;5025059;28;20113;-77
2022/12/10 08:56:10;;;;;;;42.47;13.90;;;;;;;-1.79;90.28;100970.81;5025536;28;20112;-77
2022/12/10 08:58:37;;;;;;;45.33;13.57;;;;;;;-1.77;91.25;100975.13;5007369;28;20445;-77
2022/12/10 09:01:11;;;;;;;47.07;14.87;;;;;;;-1.78;91.22;100986.16;5024898;28;20025;-77
2022/12/10 09:03:37;;;;;;;42.07;12.67;;;;;;;-1.75;90.93;100978.59;5024598;28;20021;-77
2022/12/10 09:06:07;;;;;;;45.43;14.07;;;;;;;-1.76;91.18;100979.41;5024833;28;20556;-77
2022/12/10 09:08:33;;;;;;;48.03;13.83;;;;;;;-1.75;90.95;100981.13;5024255;28;20055;-77
2022/12/10 09:11:06;;;;;;;49.13;14.33;;;;;;;-1.77;90.78;100979.34;5021801;28;20029;-77
2022/12/10 09:13:31;;;;;;;44.53;13.20;;;;;;;-1.78;90.65;100980.16;5022061;28;20050;-76
2022/12/10 09:15:56;;;;;;;48.57;14.50;;;;;;;-1.79;91.13;100984.41;5021412;28;20489;-77
2022/12/10 09:18:22;;;;;;;45.27;13.70;;;;;;;-1.78;91.31;100980.16;5021498;28;20725;-77
2022/12/10 09:20:47;;;;;;;48.00;14.73;;;;;;;-1.75;90.85;100985.34;5021600;28;20033;-77
2022/12/10 09:23:12;;;;;;;50.70;13.87;;;;;;;-1.72;91.01;100986.31;5022925;28;20087;-76
2022/12/10 09:25:38;;;;;;;48.27;14.03;;;;;;;-1.69;91.06;100988.09;5020443;28;20033;-76
2022/12/10 09:28:03;;;;;;;51.70;15.73;;;;;;;-1.70;91.58;100989.75;5021492;28;20059;-76
2022/12/10 09:30:28;;;;;;;48.50;14.70;;;;;;;-1.68;91.61;101005.97;5023265;28;20600;-76
2022/12/10 09:32:54;;;;;;;42.07;13.37;;;;;;;-1.66;90.60;101000.03;5023361;28;21614;-75
2022/12/10 09:35:19;;;;;;;50.67;14.90;;;;;;;-1.66;91.39;101000.03;5021204;28;20029;-76
2022/12/10 09:37:45;;;;;;;47.67;13.80;;;;;;;-1.65;90.82;101009.44;5021205;28;20026;-77
2022/12/10 09:40:16;;;;;;;46.30;13.97;;;;;;;-1.65;91.58;101011.97;5021440;28;20142;-77
2022/12/10 09:42:55;;;;;;;49.05;13.85;;;;;;;-1.63;91.48;101012.88;5025112;28;20029;-77
2022/12/10 09:45:39;;;;;;;49.80;14.50;;;;;;;-1.64;91.33;101003.50;5025419;28;20392;-76
2022/12/10 09:48:19;;;;;;;52.63;14.53;;;;;;;-1.66;91.22;101010.25;5024769;28;20173;-77
2022/12/10 09:50:53;;;;;;;41.60;13.33;;;;;;;-1.68;91.31;101011.06;5025963;28;20040;-77
2022/12/10 09:53:20;;;;;;;42.30;13.20;;;;;;;-1.68;91.52;101008.50;5024213;28;20037;-77
2022/12/10 09:55:47;;;;;;;40.43;13.10;;;;;;;-1.66;91.71;101015.34;5025347;28;21901;-77
2022/12/10 09:58:25;;;;;;;44.80;14.00;;;;;;;-1.65;91.38;101010.31;5025954;28;20037;-77
2022/12/10 10:01:02;;;;;;;46.87;13.33;;;;;;;-1.65;91.03;101017.06;5025708;28;20040;-77
2022/12/10 10:03:33;;;;;;;45.43;14.63;;;;;;;-1.65;91.28;101017.06;5025207;28;20021;-77
2022/12/10 10:05:59;;;;;;;43.47;13.13;;;;;;;-1.64;91.77;101012.03;5024149;28;20667;-77
2022/12/10 10:08:38;;;;;;;43.37;13.67;;;;;;;-1.60;91.42;101020.63;5026021;28;20049;-77
2022/12/10 10:11:04;;;;;;;46.30;12.83;;;;;;;-1.60;91.29;101020.63;5024342;28;20103;-77
2022/12/10 10:13:44;;;;;;;52.50;13.07;;;;;;;-1.62;91.21;101022.28;5025309;28;20041;-76
2022/12/10 10:16:15;;;;;;;42.00;12.07;;;;;;;-1.66;91.08;101028.09;5025555;28;20483;-76
2022/12/10 10:18:44;;;;;;;40.65;13.35;;;;;;;-1.68;91.74;101023.81;5024842;28;20040;-76
2022/12/10 10:21:20;;;;;;;39.37;11.90;;;;;;;-1.65;91.41;101024.72;5027652;28;20391;-76
2022/12/10 10:23:46;;;;;;;46.23;12.30;;;;;;;-1.63;91.69;101028.19;5025475;28;20030;-77
2022/12/10 10:26:11;;;;;;;42.67;12.90;;;;;;;-1.64;91.46;101024.78;5026078;28;20033;-76
2022/12/10 10:28:40;;;;;;;41.07;13.03;;;;;;;-1.61;91.02;101021.44;5025152;28;20053;-76
2022/12/10 10:31:17;;;;;;;43.63;12.77;;;;;;;-1.59;91.16;101027.47;5022375;28;20033;-76
2022/12/10 10:34:27;;;;;;;47.43;13.00;;;;;;;-1.56;91.52;101025.84;5024172;28;20052;-76
2022/12/10 10:37:03;;;;;;;49.87;13.57;;;;;;;-1.55;91.21;101026.72;5003796;28;20052;-76
2022/12/10 10:39:31;;;;;;;45.47;13.33;;;;;;;-1.54;91.44;101028.47;5025234;28;20112;-77
2022/12/10 10:41:59;;;;;;;47.00;13.03;;;;;;;-1.57;91.72;101028.38;5022359;28;20504;-77
2022/12/10 10:44:35;;;;;;;41.47;12.60;;;;;;;-1.61;91.08;101022.31;5024197;28;20083;-77
2022/12/10 10:47:00;;;;;;;41.23;12.83;;;;;;;-1.62;90.80;101022.28;5025518;28;20044;-77
2022/12/10 10:49:33;;;;;;;44.60;12.73;;;;;;;-1.64;90.85;101021.34;5024794;28;20025;-76
2022/12/10 10:52:19;;;;;;;40.47;12.80;;;;;;;-1.66;91.65;101016.22;5025286;28;20034;-76
2022/12/10 10:54:46;;;;;;;42.37;13.33;;;;;;;-1.63;91.80;101016.31;5024246;28;20520;-77
2022/12/10 10:57:33;;;;;;;43.80;12.47;;;;;;;-1.59;91.90;101009.59;5024123;28;20037;-77
2022/12/10 11:00:05;;;;;;;48.43;13.20;;;;;;;-1.55;91.96;101008.88;5024794;28;20494;-77
2022/12/10 11:02:37;;;;;;;44.03;13.60;;;;;;;-1.52;91.32;101011.47;5025463;28;20030;-76
2022/12/10 11:05:25;;;;;;;38.42;12.23;;;;;;;-1.50;92.07;101007.28;5028542;28;20423;-76
2022/12/10 11:07:59;;;;;;;39.57;12.23;;;;;;;-1.47;92.54;101007.38;5026687;28;20037;-77
2022/12/10 11:10:26;;;;;;;46.60;12.80;;;;;;;-1.43;91.31;101015.97;5023408;28;20380;-77
2022/12/10 11:13:04;;;;;;;46.90;12.73;;;;;;;-1.41;91.36;101005.00;5023653;28;20404;-77
2022/12/10 11:15:34;;;;;;;38.87;11.40;;;;;;;-1.38;91.72;101002.53;5027156;28;20112;-76
2022/12/10 11:18:00;;;;;;;41.70;12.33;;;;;;;-1.31;91.30;101002.66;5007386;28;20025;-76
2022/12/10 11:20:34;;;;;;;45.60;12.47;;;;;;;-1.30;91.56;101009.50;5024482;28;20036;-77
2022/12/10 11:23:10;;;;;;;45.17;13.40;;;;;;;-1.31;91.17;101007.75;5026651;28;20399;-77